sensor_id;sensor_type;location;lat;lon;timestamp;temperature;humidity
75500;DHT22;64076;51.466;7.260;2023-09-19T00:00:37;27.00;46.90
75500;DHT22;64076;51.466;7.260;2023-09-19T00:03:04;27.00;46.90
75500;DHT22;64076;51.466;7.260;2023-09-19T00:08:01;27.00;46.90
75500;DHT22;64076;51.466;7.260;2023-09-19T00:10:28;27.00;46.80
75500;DHT22;64076;51.466;7.260;2023-09-19T00:12:59;27.00;46.80
75500;DHT22;64076;51.466;7.260;2023-09-19T00:15:26;27.00;46.70
75500;DHT22;64076;51.466;7.260;2023-09-19T00:17:55;27.00;46.70
75500;DHT22;64076;51.466;7.260;2023-09-19T00:20:21;27.00;46.80
75500;DHT22;64076;51.466;7.260;2023-09-19T00:25:20;27.00;46.70
75500;DHT22;64076;51.466;7.260;2023-09-19T00:27:46;27.00;46.70
75500;DHT22;64076;51.466;7.260;2023-09-19T00:30:15;27.00;46.70
75500;DHT22;64076;51.466;7.260;2023-09-19T00:32:48;27.00;46.70
75500;DHT22;64076;51.466;7.260;2023-09-19T00:35:15;27.00;46.70
75500;DHT22;64076;51.466;7.260;2023-09-19T00:37:41;27.00;46.60
75500;DHT22;64076;51.466;7.260;2023-09-19T00:40:07;27.00;46.60
75500;DHT22;64076;51.466;7.260;2023-09-19T00:42:41;26.90;46.60
75500;DHT22;64076;51.466;7.260;2023-09-19T00:45:08;27.00;46.60
75500;DHT22;64076;51.466;7.260;2023-09-19T00:50:23;27.00;46.40
75500;DHT22;64076;51.466;7.260;2023-09-19T00:52:54;27.00;46.50
75500;DHT22;64076;51.466;7.260;2023-09-19T00:55:21;27.00;46.40
75500;DHT22;64076;51.466;7.260;2023-09-19T00:57:47;26.90;46.40
75500;DHT22;64076;51.466;7.260;2023-09-19T01:00:15;26.90;46.40
75500;DHT22;64076;51.466;7.260;2023-09-19T01:02:42;26.90;46.30
75500;DHT22;64076;51.466;7.260;2023-09-19T01:08:26;26.90;46.40
75500;DHT22;64076;51.466;7.260;2023-09-19T01:16:32;26.90;46.30
75500;DHT22;64076;51.466;7.260;2023-09-19T01:21:57;26.90;46.20
75500;DHT22;64076;51.466;7.260;2023-09-19T01:27:38;26.90;46.10
75500;DHT22;64076;51.466;7.260;2023-09-19T01:30:14;26.90;46.10
75500;DHT22;64076;51.466;7.260;2023-09-19T01:32:40;26.90;46.00
75500;DHT22;64076;51.466;7.260;2023-09-19T01:35:06;26.90;46.10
75500;DHT22;64076;51.466;7.260;2023-09-19T01:40:50;26.80;45.90
75500;DHT22;64076;51.466;7.260;2023-09-19T01:43:32;26.90;45.80
75500;DHT22;64076;51.466;7.260;2023-09-19T01:46:14;26.80;46.00
75500;DHT22;64076;51.466;7.260;2023-09-19T01:51:55;26.80;46.00
75500;DHT22;64076;51.466;7.260;2023-09-19T01:54:28;26.80;45.90
75500;DHT22;64076;51.466;7.260;2023-09-19T01:57:22;26.80;45.70
75500;DHT22;64076;51.466;7.260;2023-09-19T02:00:06;26.80;45.70
75500;DHT22;64076;51.466;7.260;2023-09-19T02:02:40;26.80;45.90
75500;DHT22;64076;51.466;7.260;2023-09-19T02:05:07;26.80;45.80
75500;DHT22;64076;51.466;7.260;2023-09-19T02:07:33;26.80;45.80
75500;DHT22;64076;51.466;7.260;2023-09-19T02:09:59;26.80;45.70
75500;DHT22;64076;51.466;7.260;2023-09-19T02:12:30;26.80;45.50
75500;DHT22;64076;51.466;7.260;2023-09-19T02:14:56;26.80;45.70
75500;DHT22;64076;51.466;7.260;2023-09-19T02:17:22;26.80;45.70
75500;DHT22;64076;51.466;7.260;2023-09-19T02:19:52;26.80;45.60
75500;DHT22;64076;51.466;7.260;2023-09-19T02:22:17;26.80;45.70
75500;DHT22;64076;51.466;7.260;2023-09-19T02:24:43;26.80;45.70
75500;DHT22;64076;51.466;7.260;2023-09-19T02:27:08;26.80;45.60
75500;DHT22;64076;51.466;7.260;2023-09-19T02:29:34;26.80;45.60
75500;DHT22;64076;51.466;7.260;2023-09-19T02:32:00;26.80;45.50
75500;DHT22;64076;51.466;7.260;2023-09-19T02:34:28;26.80;45.30
75500;DHT22;64076;51.466;7.260;2023-09-19T02:36:54;26.80;45.40
75500;DHT22;64076;51.466;7.260;2023-09-19T02:39:21;26.80;45.50
75500;DHT22;64076;51.466;7.260;2023-09-19T02:41:46;26.80;45.50
75500;DHT22;64076;51.466;7.260;2023-09-19T02:44:12;26.80;45.40
75500;DHT22;64076;51.466;7.260;2023-09-19T02:46:37;26.80;45.50
75500;DHT22;64076;51.466;7.260;2023-09-19T02:49:03;26.80;45.50
75500;DHT22;64076;51.466;7.260;2023-09-19T02:51:32;26.80;45.30
75500;DHT22;64076;51.466;7.260;2023-09-19T02:54:01;26.80;45.30
75500;DHT22;64076;51.466;7.260;2023-09-19T02:56:29;26.80;45.20
75500;DHT22;64076;51.466;7.260;2023-09-19T02:58:56;26.80;45.20
75500;DHT22;64076;51.466;7.260;2023-09-19T03:01:22;26.80;45.10
75500;DHT22;64076;51.466;7.260;2023-09-19T03:03:47;26.80;45.30
75500;DHT22;64076;51.466;7.260;2023-09-19T03:06:13;26.80;45.20
75500;DHT22;64076;51.466;7.260;2023-09-19T03:08:40;26.80;45.30
75500;DHT22;64076;51.466;7.260;2023-09-19T03:11:10;26.80;45.10
75500;DHT22;64076;51.466;7.260;2023-09-19T03:13:37;26.70;45.20
75500;DHT22;64076;51.466;7.260;2023-09-19T03:16:04;26.70;45.10
75500;DHT22;64076;51.466;7.260;2023-09-19T03:18:31;26.70;45.20
75500;DHT22;64076;51.466;7.260;2023-09-19T03:20:57;26.70;45.00
75500;DHT22;64076;51.466;7.260;2023-09-19T03:23:27;26.70;45.10
75500;DHT22;64076;51.466;7.260;2023-09-19T03:25:53;26.70;45.10
75500;DHT22;64076;51.466;7.260;2023-09-19T03:28:19;26.70;45.20
75500;DHT22;64076;51.466;7.260;2023-09-19T03:30:46;26.70;44.90
75500;DHT22;64076;51.466;7.260;2023-09-19T03:33:12;26.70;45.00
75500;DHT22;64076;51.466;7.260;2023-09-19T03:35:39;26.70;44.90
75500;DHT22;64076;51.466;7.260;2023-09-19T03:38:05;26.70;44.80
75500;DHT22;64076;51.466;7.260;2023-09-19T03:40:31;26.70;44.60
75500;DHT22;64076;51.466;7.260;2023-09-19T03:42:56;26.70;44.80
75500;DHT22;64076;51.466;7.260;2023-09-19T03:45:25;26.70;44.90
75500;DHT22;64076;51.466;7.260;2023-09-19T03:47:51;26.70;44.90
75500;DHT22;64076;51.466;7.260;2023-09-19T03:50:16;26.70;44.80
75500;DHT22;64076;51.466;7.260;2023-09-19T03:52:44;26.70;44.70
75500;DHT22;64076;51.466;7.260;2023-09-19T03:55:09;26.70;44.80
75500;DHT22;64076;51.466;7.260;2023-09-19T03:57:35;26.70;44.70
75500;DHT22;64076;51.466;7.260;2023-09-19T04:00:01;26.70;44.60
75500;DHT22;64076;51.466;7.260;2023-09-19T04:02:27;26.70;44.70
75500;DHT22;64076;51.466;7.260;2023-09-19T04:04:58;26.60;44.60
75500;DHT22;64076;51.466;7.260;2023-09-19T04:07:23;26.60;44.70
75500;DHT22;64076;51.466;7.260;2023-09-19T04:09:51;26.70;44.60
75500;DHT22;64076;51.466;7.260;2023-09-19T04:12:18;26.60;44.70
75500;DHT22;64076;51.466;7.260;2023-09-19T04:14:44;26.60;44.60
75500;DHT22;64076;51.466;7.260;2023-09-19T04:17:10;26.60;44.50
75500;DHT22;64076;51.466;7.260;2023-09-19T04:19:36;26.60;44.60
75500;DHT22;64076;51.466;7.260;2023-09-19T04:22:02;26.60;44.60
75500;DHT22;64076;51.466;7.260;2023-09-19T04:24:29;26.70;44.60
75500;DHT22;64076;51.466;7.260;2023-09-19T04:26:54;26.70;44.60
75500;DHT22;64076;51.466;7.260;2023-09-19T04:29:20;26.70;44.50
75500;DHT22;64076;51.466;7.260;2023-09-19T04:31:45;26.70;44.50
75500;DHT22;64076;51.466;7.260;2023-09-19T04:34:11;26.70;44.50
75500;DHT22;64076;51.466;7.260;2023-09-19T04:36:42;26.60;44.50
75500;DHT22;64076;51.466;7.260;2023-09-19T04:39:08;26.60;44.50
75500;DHT22;64076;51.466;7.260;2023-09-19T04:41:36;26.70;44.50
75500;DHT22;64076;51.466;7.260;2023-09-19T04:44:05;26.70;44.50
75500;DHT22;64076;51.466;7.260;2023-09-19T04:46:30;26.70;44.50
75500;DHT22;64076;51.466;7.260;2023-09-19T04:48:56;26.70;44.50
75500;DHT22;64076;51.466;7.260;2023-09-19T04:51:22;26.70;44.40
75500;DHT22;64076;51.466;7.260;2023-09-19T04:53:48;26.70;44.50
75500;DHT22;64076;51.466;7.260;2023-09-19T04:56:14;26.60;44.50
75500;DHT22;64076;51.466;7.260;2023-09-19T04:58:40;26.60;44.50
75500;DHT22;64076;51.466;7.260;2023-09-19T05:01:06;26.60;44.40
75500;DHT22;64076;51.466;7.260;2023-09-19T05:03:36;26.60;44.40
75500;DHT22;64076;51.466;7.260;2023-09-19T05:06:02;26.60;44.40
75500;DHT22;64076;51.466;7.260;2023-09-19T05:08:28;26.60;44.40
75500;DHT22;64076;51.466;7.260;2023-09-19T05:10:54;26.60;44.40
75500;DHT22;64076;51.466;7.260;2023-09-19T05:13:21;26.60;44.40
75500;DHT22;64076;51.466;7.260;2023-09-19T05:15:49;26.60;44.40
75500;DHT22;64076;51.466;7.260;2023-09-19T05:18:15;26.70;43.80
75500;DHT22;64076;51.466;7.260;2023-09-19T05:20:41;26.70;43.30
75500;DHT22;64076;51.466;7.260;2023-09-19T05:23:07;26.70;43.00
75500;DHT22;64076;51.466;7.260;2023-09-19T05:25:38;26.60;42.90
75500;DHT22;64076;51.466;7.260;2023-09-19T05:28:08;26.60;42.70
75500;DHT22;64076;51.466;7.260;2023-09-19T05:30:35;26.60;42.60
75500;DHT22;64076;51.466;7.260;2023-09-19T05:33:09;26.50;42.50
75500;DHT22;64076;51.466;7.260;2023-09-19T05:35:34;26.50;42.30
75500;DHT22;64076;51.466;7.260;2023-09-19T05:38:04;26.50;42.20
75500;DHT22;64076;51.466;7.260;2023-09-19T05:40:34;26.50;42.20
75500;DHT22;64076;51.466;7.260;2023-09-19T05:43:00;26.50;42.10
75500;DHT22;64076;51.466;7.260;2023-09-19T05:45:26;26.50;42.00
75500;DHT22;64076;51.466;7.260;2023-09-19T05:47:53;26.50;41.90
75500;DHT22;64076;51.466;7.260;2023-09-19T05:50:26;26.50;41.80
75500;DHT22;64076;51.466;7.260;2023-09-19T05:52:52;26.50;41.80
75500;DHT22;64076;51.466;7.260;2023-09-19T05:55:19;26.40;41.70
75500;DHT22;64076;51.466;7.260;2023-09-19T05:57:50;26.40;41.60
75500;DHT22;64076;51.466;7.260;2023-09-19T06:00:17;26.40;41.50
75500;DHT22;64076;51.466;7.260;2023-09-19T06:02:44;26.40;41.50
75500;DHT22;64076;51.466;7.260;2023-09-19T06:05:10;26.40;41.50
75500;DHT22;64076;51.466;7.260;2023-09-19T06:07:36;26.40;41.40
75500;DHT22;64076;51.466;7.260;2023-09-19T06:10:03;26.40;41.40
75500;DHT22;64076;51.466;7.260;2023-09-19T06:12:31;26.40;41.40
75500;DHT22;64076;51.466;7.260;2023-09-19T06:14:58;26.40;41.30
75500;DHT22;64076;51.466;7.260;2023-09-19T06:17:24;26.40;41.30
75500;DHT22;64076;51.466;7.260;2023-09-19T06:19:52;26.40;41.30
75500;DHT22;64076;51.466;7.260;2023-09-19T06:22:17;26.40;41.30
75500;DHT22;64076;51.466;7.260;2023-09-19T06:24:44;26.40;41.20
75500;DHT22;64076;51.466;7.260;2023-09-19T06:27:09;26.40;41.20
75500;DHT22;64076;51.466;7.260;2023-09-19T06:29:35;26.40;41.20
75500;DHT22;64076;51.466;7.260;2023-09-19T06:32:07;26.40;41.20
75500;DHT22;64076;51.466;7.260;2023-09-19T06:34:32;26.40;41.20
75500;DHT22;64076;51.466;7.260;2023-09-19T06:36:58;26.40;41.20
75500;DHT22;64076;51.466;7.260;2023-09-19T06:39:24;26.30;41.10
75500;DHT22;64076;51.466;7.260;2023-09-19T06:41:51;26.40;41.10
75500;DHT22;64076;51.466;7.260;2023-09-19T06:44:19;26.40;41.10
75500;DHT22;64076;51.466;7.260;2023-09-19T06:46:46;26.30;41.10
75500;DHT22;64076;51.466;7.260;2023-09-19T06:49:19;26.30;41.10
75500;DHT22;64076;51.466;7.260;2023-09-19T06:51:45;26.30;41.10
75500;DHT22;64076;51.466;7.260;2023-09-19T06:54:10;26.30;41.10
75500;DHT22;64076;51.466;7.260;2023-09-19T06:56:36;26.30;41.10
75500;DHT22;64076;51.466;7.260;2023-09-19T06:59:02;26.30;41.10
75500;DHT22;64076;51.466;7.260;2023-09-19T07:01:29;26.30;41.10
75500;DHT22;64076;51.466;7.260;2023-09-19T07:03:54;26.40;41.10
75500;DHT22;64076;51.466;7.260;2023-09-19T07:06:20;26.40;41.10
75500;DHT22;64076;51.466;7.260;2023-09-19T07:08:46;26.40;41.10
75500;DHT22;64076;51.466;7.260;2023-09-19T07:11:11;26.30;41.10
75500;DHT22;64076;51.466;7.260;2023-09-19T07:13:38;26.30;41.20
75500;DHT22;64076;51.466;7.260;2023-09-19T07:16:04;26.30;41.20
75500;DHT22;64076;51.466;7.260;2023-09-19T07:18:30;26.30;41.20
75500;DHT22;64076;51.466;7.260;2023-09-19T07:20:57;26.40;41.20
75500;DHT22;64076;51.466;7.260;2023-09-19T07:23:24;26.30;41.20
75500;DHT22;64076;51.466;7.260;2023-09-19T07:25:51;26.40;41.20
75500;DHT22;64076;51.466;7.260;2023-09-19T07:28:17;26.40;41.20
75500;DHT22;64076;51.466;7.260;2023-09-19T07:30:43;26.40;41.30
75500;DHT22;64076;51.466;7.260;2023-09-19T07:33:08;26.40;41.20
75500;DHT22;64076;51.466;7.260;2023-09-19T07:35:37;26.40;41.20
75500;DHT22;64076;51.466;7.260;2023-09-19T07:38:05;26.40;41.30
75500;DHT22;64076;51.466;7.260;2023-09-19T07:40:30;26.50;41.30
75500;DHT22;64076;51.466;7.260;2023-09-19T07:42:56;26.50;41.30
75500;DHT22;64076;51.466;7.260;2023-09-19T07:45:21;26.50;41.30
75500;DHT22;64076;51.466;7.260;2023-09-19T07:47:49;26.50;41.30
75500;DHT22;64076;51.466;7.260;2023-09-19T07:50:16;26.60;41.30
75500;DHT22;64076;51.466;7.260;2023-09-19T07:52:44;26.60;41.20
75500;DHT22;64076;51.466;7.260;2023-09-19T07:55:10;26.60;41.20
75500;DHT22;64076;51.466;7.260;2023-09-19T07:57:42;26.60;41.20
75500;DHT22;64076;51.466;7.260;2023-09-19T08:00:08;26.70;41.20
75500;DHT22;64076;51.466;7.260;2023-09-19T08:02:36;26.70;41.10
75500;DHT22;64076;51.466;7.260;2023-09-19T08:05:04;26.70;41.20
75500;DHT22;64076;51.466;7.260;2023-09-19T08:07:36;26.70;41.20
75500;DHT22;64076;51.466;7.260;2023-09-19T08:10:05;26.70;41.20
75500;DHT22;64076;51.466;7.260;2023-09-19T08:12:37;26.70;41.20
75500;DHT22;64076;51.466;7.260;2023-09-19T08:15:03;26.80;41.20
75500;DHT22;64076;51.466;7.260;2023-09-19T08:19:54;26.90;41.20
75500;DHT22;64076;51.466;7.260;2023-09-19T08:22:20;26.90;41.10
75500;DHT22;64076;51.466;7.260;2023-09-19T08:24:47;26.90;41.10
75500;DHT22;64076;51.466;7.260;2023-09-19T08:27:13;27.00;41.10
75500;DHT22;64076;51.466;7.260;2023-09-19T08:29:39;27.00;41.10
75500;DHT22;64076;51.466;7.260;2023-09-19T08:32:04;26.90;41.20
75500;DHT22;64076;51.466;7.260;2023-09-19T08:34:30;26.90;41.20
75500;DHT22;64076;51.466;7.260;2023-09-19T08:36:59;26.90;41.30
75500;DHT22;64076;51.466;7.260;2023-09-19T08:39:25;26.90;41.30
75500;DHT22;64076;51.466;7.260;2023-09-19T08:42:00;26.90;41.20
75500;DHT22;64076;51.466;7.260;2023-09-19T08:44:28;26.90;41.20
75500;DHT22;64076;51.466;7.260;2023-09-19T08:47:04;26.90;41.30
75500;DHT22;64076;51.466;7.260;2023-09-19T08:52:32;26.90;41.20
75500;DHT22;64076;51.466;7.260;2023-09-19T08:55:02;27.00;41.10
75500;DHT22;64076;51.466;7.260;2023-09-19T08:57:33;27.00;41.20
75500;DHT22;64076;51.466;7.260;2023-09-19T09:00:02;27.00;41.10
75500;DHT22;64076;51.466;7.260;2023-09-19T09:02:31;27.00;41.10
75500;DHT22;64076;51.466;7.260;2023-09-19T09:05:01;27.00;41.10
75500;DHT22;64076;51.466;7.260;2023-09-19T09:07:27;27.10;41.10
75500;DHT22;64076;51.466;7.260;2023-09-19T09:09:53;27.10;41.10
75500;DHT22;64076;51.466;7.260;2023-09-19T09:12:19;27.10;41.00
75500;DHT22;64076;51.466;7.260;2023-09-19T09:14:46;27.10;40.90
75500;DHT22;64076;51.466;7.260;2023-09-19T09:17:16;27.20;41.00
75500;DHT22;64076;51.466;7.260;2023-09-19T09:19:46;27.20;40.90
75500;DHT22;64076;51.466;7.260;2023-09-19T09:22:12;27.20;40.90
75500;DHT22;64076;51.466;7.260;2023-09-19T09:24:51;27.20;40.80
75500;DHT22;64076;51.466;7.260;2023-09-19T09:27:19;27.20;40.70
75500;DHT22;64076;51.466;7.260;2023-09-19T09:29:47;27.20;40.70
75500;DHT22;64076;51.466;7.260;2023-09-19T10:03:35;27.20;40.70
75500;DHT22;64076;51.466;7.260;2023-09-19T10:06:06;27.20;39.80
75500;DHT22;64076;51.466;7.260;2023-09-19T10:11:30;27.20;39.80
75500;DHT22;64076;51.466;7.260;2023-09-19T10:13:58;27.20;39.80
75500;DHT22;64076;51.466;7.260;2023-09-19T10:16:29;27.20;39.70
75500;DHT22;64076;51.466;7.260;2023-09-19T10:19:00;27.20;39.80
75500;DHT22;64076;51.466;7.260;2023-09-19T10:21:28;27.20;39.60
75500;DHT22;64076;51.466;7.260;2023-09-19T10:23:58;27.20;39.70
75500;DHT22;64076;51.466;7.260;2023-09-19T10:26:26;27.20;39.70
75500;DHT22;64076;51.466;7.260;2023-09-19T10:28:56;27.20;39.80
75500;DHT22;64076;51.466;7.260;2023-09-19T10:31:23;27.30;39.70
75500;DHT22;64076;51.466;7.260;2023-09-19T11:03:40;27.20;39.70
75500;DHT22;64076;51.466;7.260;2023-09-19T11:22:13;27.20;39.10
75500;DHT22;64076;51.466;7.260;2023-09-19T11:24:39;27.30;38.90
75500;DHT22;64076;51.466;7.260;2023-09-19T11:27:13;27.30;38.80
75500;DHT22;64076;51.466;7.260;2023-09-19T11:29:39;27.30;38.70
75500;DHT22;64076;51.466;7.260;2023-09-19T11:32:06;27.30;38.80
75500;DHT22;64076;51.466;7.260;2023-09-19T11:34:40;27.30;38.80
75500;DHT22;64076;51.466;7.260;2023-09-19T11:39:42;27.30;38.80
75500;DHT22;64076;51.466;7.260;2023-09-19T11:42:45;27.30;38.90
75500;DHT22;64076;51.466;7.260;2023-09-19T11:48:32;27.30;38.70
75500;DHT22;64076;51.466;7.260;2023-09-19T11:50:58;27.30;38.90
75500;DHT22;64076;51.466;7.260;2023-09-19T11:55:58;27.30;38.80
75500;DHT22;64076;51.466;7.260;2023-09-19T11:58:26;27.30;38.80
75500;DHT22;64076;51.466;7.260;2023-09-19T12:00:54;27.30;38.90
75500;DHT22;64076;51.466;7.260;2023-09-19T12:03:29;27.30;38.90
75500;DHT22;64076;51.466;7.260;2023-09-19T12:05:55;27.30;38.90
75500;DHT22;64076;51.466;7.260;2023-09-19T12:08:23;27.30;38.90
75500;DHT22;64076;51.466;7.260;2023-09-19T12:10:50;27.30;38.80
75500;DHT22;64076;51.466;7.260;2023-09-19T12:13:19;27.40;38.80
75500;DHT22;64076;51.466;7.260;2023-09-19T12:15:46;27.40;38.80
75500;DHT22;64076;51.466;7.260;2023-09-19T12:20:58;27.40;38.70
75500;DHT22;64076;51.466;7.260;2023-09-19T12:23:25;27.40;38.70
75500;DHT22;64076;51.466;7.260;2023-09-19T12:25:51;27.40;38.70
75500;DHT22;64076;51.466;7.260;2023-09-19T12:28:19;27.40;38.70
75500;DHT22;64076;51.466;7.260;2023-09-19T12:30:47;27.40;38.70
75500;DHT22;64076;51.466;7.260;2023-09-19T12:33:17;27.40;38.60
75500;DHT22;64076;51.466;7.260;2023-09-19T12:35:45;27.40;38.60
75500;DHT22;64076;51.466;7.260;2023-09-19T12:38:10;27.40;38.60
75500;DHT22;64076;51.466;7.260;2023-09-19T13:13:37;27.40;38.60
75500;DHT22;64076;51.466;7.260;2023-09-19T13:16:03;27.30;38.10
75500;DHT22;64076;51.466;7.260;2023-09-19T13:18:54;27.40;38.10
75500;DHT22;64076;51.466;7.260;2023-09-19T13:21:34;27.40;38.10
75500;DHT22;64076;51.466;7.260;2023-09-19T13:26:53;27.40;37.90
75500;DHT22;64076;51.466;7.260;2023-09-19T13:29:19;27.40;37.90
75500;DHT22;64076;51.466;7.260;2023-09-19T13:31:49;27.40;37.80
75500;DHT22;64076;51.466;7.260;2023-09-19T13:34:18;27.40;37.80
75500;DHT22;64076;51.466;7.260;2023-09-19T13:36:44;27.40;37.70
75500;DHT22;64076;51.466;7.260;2023-09-19T13:39:10;27.40;37.90
75500;DHT22;64076;51.466;7.260;2023-09-19T13:41:38;27.40;37.90
75500;DHT22;64076;51.466;7.260;2023-09-19T13:44:04;27.40;37.90
75500;DHT22;64076;51.466;7.260;2023-09-19T13:46:30;27.40;37.90
75500;DHT22;64076;51.466;7.260;2023-09-19T13:48:59;27.40;37.90
75500;DHT22;64076;51.466;7.260;2023-09-19T13:51:26;27.50;37.80
75500;DHT22;64076;51.466;7.260;2023-09-19T13:53:51;27.40;37.90
75500;DHT22;64076;51.466;7.260;2023-09-19T15:05:21;27.40;37.90
75500;DHT22;64076;51.466;7.260;2023-09-19T15:07:46;27.40;38.10
75500;DHT22;64076;51.466;7.260;2023-09-19T15:10:12;27.40;38.20
75500;DHT22;64076;51.466;7.260;2023-09-19T15:59:09;27.30;38.70
75500;DHT22;64076;51.466;7.260;2023-09-19T16:01:38;27.40;38.70
75500;DHT22;64076;51.466;7.260;2023-09-19T16:04:04;27.40;38.70
75500;DHT22;64076;51.466;7.260;2023-09-19T16:06:30;27.30;38.70
75500;DHT22;64076;51.466;7.260;2023-09-19T16:08:59;27.40;38.60
75500;DHT22;64076;51.466;7.260;2023-09-19T16:11:27;27.40;38.70
75500;DHT22;64076;51.466;7.260;2023-09-19T16:13:53;27.40;38.60
75500;DHT22;64076;51.466;7.260;2023-09-19T16:16:21;27.40;38.70
75500;DHT22;64076;51.466;7.260;2023-09-19T16:18:52;27.30;38.70
75500;DHT22;64076;51.466;7.260;2023-09-19T16:21:19;27.40;38.80
75500;DHT22;64076;51.466;7.260;2023-09-19T16:23:48;27.40;38.80
75500;DHT22;64076;51.466;7.260;2023-09-19T16:26:15;27.40;38.80
75500;DHT22;64076;51.466;7.260;2023-09-19T16:28:44;27.40;38.80
75500;DHT22;64076;51.466;7.260;2023-09-19T16:31:09;27.40;38.70
75500;DHT22;64076;51.466;7.260;2023-09-19T16:33:39;27.40;38.70
